createdAt,value
2019-06-15T00:01:45.391Z,17.20
2019-06-15T00:04:13.800Z,17.20
2019-06-15T00:06:42.209Z,17.20
2019-06-15T00:09:10.611Z,17.30
2019-06-15T00:11:39.105Z,17.30
2019-06-15T00:14:07.510Z,17.40
2019-06-15T00:16:35.905Z,17.40
2019-06-15T00:19:04.372Z,17.50
2019-06-15T00:21:32.782Z,17.50
2019-06-15T00:24:01.187Z,17.50
2019-06-15T00:26:29.589Z,17.40
2019-06-15T00:28:57.993Z,17.30
2019-06-15T00:31:26.474Z,17.30
2019-06-15T00:33:54.886Z,17.30
2019-06-15T00:36:23.304Z,17.20
2019-06-15T00:38:51.707Z,17.30
2019-06-15T00:41:20.121Z,17.30
2019-06-15T00:43:48.530Z,17.40
2019-06-15T00:46:17.013Z,17.40
2019-06-15T00:48:45.459Z,17.40
2019-06-15T00:51:13.966Z,17.40
2019-06-15T00:53:42.364Z,17.40
2019-06-15T00:56:10.877Z,17.40
2019-06-15T00:58:39.401Z,17.50
2019-06-15T01:01:07.829Z,17.50
2019-06-15T01:03:36.254Z,17.40
2019-06-15T01:06:04.754Z,17.40
2019-06-15T01:08:33.158Z,17.40
2019-06-15T01:11:01.950Z,17.30
2019-06-15T01:13:30.345Z,17.20
2019-06-15T01:15:58.893Z,17.10
2019-06-15T01:18:27.361Z,17.00
2019-06-15T01:20:55.891Z,17.00
2019-06-15T01:23:24.376Z,16.90
2019-06-15T01:25:52.789Z,16.90
2019-06-15T01:28:21.566Z,16.80
2019-06-15T01:30:50.203Z,16.70
2019-06-15T01:33:18.659Z,16.70
2019-06-15T01:35:47.074Z,16.70
2019-06-15T01:38:15.481Z,16.70
2019-06-15T01:40:43.893Z,16.70
2019-06-15T01:43:12.294Z,16.70
2019-06-15T01:45:40.706Z,16.60
2019-06-15T01:48:09.115Z,16.70
2019-06-15T01:50:37.607Z,16.70
2019-06-15T01:53:06.010Z,16.70
2019-06-15T01:55:34.413Z,16.70
2019-06-15T01:58:02.836Z,16.70
2019-06-15T02:00:31.773Z,16.70
2019-06-15T02:03:00.318Z,16.70
2019-06-15T02:05:28.783Z,16.70
2019-06-15T02:07:57.199Z,16.50
2019-06-15T02:10:30.078Z,16.50
2019-06-15T02:12:58.483Z,16.40
2019-06-15T02:15:27.027Z,16.40
2019-06-15T02:17:55.452Z,16.50
2019-06-15T02:20:23.983Z,16.50
2019-06-15T02:22:52.387Z,16.50
2019-06-15T02:25:35.480Z,16.40
2019-06-15T02:27:56.124Z,16.40
2019-06-15T02:30:32.669Z,16.20
2019-06-15T02:33:01.418Z,16.10
2019-06-15T02:35:29.991Z,16.10
2019-06-15T02:37:58.431Z,16.10
2019-06-15T02:40:26.902Z,16.20
2019-06-15T02:42:55.382Z,16.30
2019-06-15T02:45:24.631Z,16.20
2019-06-15T02:47:53.097Z,16.10
2019-06-15T02:50:22.114Z,16.10
2019-06-15T02:52:50.587Z,16.00
2019-06-15T02:55:19.323Z,15.90
2019-06-15T02:57:47.710Z,15.90
2019-06-15T03:00:19.185Z,15.80
2019-06-15T03:02:47.595Z,15.80
2019-06-15T03:05:16.251Z,15.70
2019-06-15T03:07:44.731Z,15.70
2019-06-15T03:10:13.207Z,15.70
2019-06-15T03:12:41.614Z,15.70
2019-06-15T03:15:10.366Z,15.70
2019-06-15T03:17:38.950Z,15.80
2019-06-15T03:20:07.940Z,15.80
2019-06-15T03:22:36.379Z,15.80
2019-06-15T03:25:08.258Z,15.80
2019-06-15T03:27:36.665Z,15.90
2019-06-15T03:30:08.478Z,15.90
2019-06-15T03:32:36.881Z,15.90
2019-06-15T03:35:08.127Z,15.90
2019-06-15T03:37:36.534Z,15.80
2019-06-15T03:40:08.082Z,15.80
2019-06-15T03:42:36.533Z,15.80
2019-06-15T03:45:07.322Z,15.70
2019-06-15T03:47:35.738Z,15.70
2019-06-15T03:50:06.941Z,15.70
2019-06-15T03:52:35.474Z,15.80
2019-06-15T03:55:04.320Z,15.90
2019-06-15T03:57:32.743Z,15.90
2019-06-15T04:00:01.257Z,16.00
2019-06-15T04:02:29.684Z,16.00
2019-06-15T04:04:58.091Z,16.00
2019-06-15T04:07:26.746Z,16.00
2019-06-15T04:09:55.159Z,16.10
2019-06-15T04:12:23.575Z,16.10
2019-06-15T04:14:52.125Z,16.20
2019-06-15T04:17:20.550Z,16.30
2019-06-15T04:19:48.957Z,16.40
2019-06-15T04:22:17.374Z,16.50
2019-06-15T04:24:45.795Z,16.60
2019-06-15T04:27:14.220Z,16.60
2019-06-15T04:29:42.928Z,16.70
2019-06-15T04:32:11.447Z,16.60
2019-06-15T04:34:39.846Z,16.70
2019-06-15T04:37:08.263Z,16.70
2019-06-15T04:39:36.688Z,16.70
2019-06-15T04:42:05.096Z,16.70
2019-06-15T04:44:33.506Z,16.60
2019-06-15T04:47:01.920Z,16.60
2019-06-15T04:49:30.557Z,16.70
2019-06-15T04:51:58.995Z,16.80
2019-06-15T04:54:27.402Z,17.00
2019-06-15T04:56:55.814Z,17.20
2019-06-15T04:59:24.232Z,17.30
2019-06-15T05:01:52.643Z,17.30
2019-06-15T05:04:21.122Z,17.40
2019-06-15T05:06:49.553Z,17.60
2019-06-15T05:09:18.018Z,17.60
2019-06-15T05:11:46.441Z,17.70
2019-06-15T05:14:14.853Z,17.70
2019-06-15T05:16:43.269Z,17.70
2019-06-15T05:19:11.670Z,17.70
2019-06-15T05:21:40.083Z,17.90
2019-06-15T05:24:08.758Z,18.10
2019-06-15T05:26:37.242Z,18.30
2019-06-15T05:29:05.682Z,18.40
2019-06-15T05:31:34.215Z,18.70
2019-06-15T05:34:02.634Z,19.00
2019-06-15T05:36:31.047Z,19.30
2019-06-15T05:38:59.494Z,19.40
2019-06-15T05:41:27.903Z,19.70
2019-06-15T05:43:56.359Z,19.90
2019-06-15T05:46:24.768Z,20.20
2019-06-15T05:48:53.170Z,20.60
2019-06-15T05:51:21.590Z,20.90
2019-06-15T05:53:49.991Z,21.20
2019-06-15T05:56:18.431Z,21.50
2019-06-15T05:58:46.846Z,21.90
2019-06-15T06:01:15.324Z,22.10
2019-06-15T06:03:43.777Z,22.70
2019-06-15T06:06:12.173Z,23.20
2019-06-15T06:08:40.603Z,23.70
2019-06-15T06:11:09.024Z,24.40
2019-06-15T06:13:37.421Z,24.80
2019-06-15T06:16:05.834Z,24.80
2019-06-15T06:18:34.325Z,24.90
2019-06-15T06:21:02.727Z,25.20
2019-06-15T06:23:31.150Z,25.40
2019-06-15T06:25:59.551Z,25.60
2019-06-15T06:28:28.043Z,25.80
2019-06-15T06:30:56.513Z,26.30
2019-06-15T06:33:24.930Z,26.60
2019-06-15T06:35:53.325Z,27.20
2019-06-15T06:38:21.734Z,27.70
2019-06-15T06:40:50.324Z,27.80
2019-06-15T06:43:18.911Z,27.50
2019-06-15T06:45:47.460Z,27.60
2019-06-15T06:48:15.874Z,27.50
2019-06-15T06:50:44.750Z,27.40
2019-06-15T06:53:13.169Z,27.10
2019-06-15T06:55:42.219Z,27.60
2019-06-15T06:58:10.626Z,27.50
2019-06-15T07:00:39.051Z,27.50
2019-06-15T07:03:07.439Z,27.80
2019-06-15T07:05:35.880Z,28.20
2019-06-15T07:08:04.353Z,28.30
2019-06-15T07:10:32.847Z,28.10
2019-06-15T07:13:01.245Z,28.00
2019-06-15T07:15:29.658Z,27.80
2019-06-15T07:17:58.088Z,28.20
2019-06-15T07:20:26.666Z,28.30
2019-06-15T07:22:55.087Z,28.20
2019-06-15T07:25:23.505Z,28.30
2019-06-15T07:28:06.922Z,28.30
2019-06-15T07:30:22.063Z,28.50
2019-06-15T07:32:50.463Z,28.50
2019-06-15T07:35:18.882Z,28.90
2019-06-15T07:37:47.349Z,28.30
2019-06-15T07:40:16.286Z,27.90
2019-06-15T07:42:44.703Z,27.60
2019-06-15T07:45:13.366Z,26.70
2019-06-15T07:47:41.853Z,26.80
2019-06-15T07:50:10.371Z,26.80
2019-06-15T07:52:38.778Z,27.30
2019-06-15T07:55:08.131Z,27.10
2019-06-15T07:57:36.546Z,27.20
2019-06-15T08:00:07.981Z,28.20
2019-06-15T08:02:36.453Z,29.50
2019-06-15T08:05:06.621Z,29.60
2019-06-15T08:07:35.046Z,29.90
2019-06-15T08:10:05.468Z,30.00
2019-06-15T08:12:33.947Z,30.60
2019-06-15T08:15:02.518Z,31.00
2019-06-15T08:17:30.943Z,30.50
2019-06-15T08:19:59.435Z,30.70
2019-06-15T08:22:27.874Z,31.30
2019-06-15T08:24:56.570Z,31.90
2019-06-15T08:27:24.987Z,31.50
2019-06-15T08:29:53.449Z,32.00
2019-06-15T08:32:21.861Z,32.80
2019-06-15T08:34:50.273Z,32.90
2019-06-15T08:37:18.674Z,33.00
2019-06-15T08:39:47.103Z,33.00
2019-06-15T08:42:15.569Z,34.00
2019-06-15T08:44:44.058Z,33.50
2019-06-15T08:47:12.558Z,33.50
2019-06-15T08:49:40.971Z,33.90
2019-06-15T08:52:09.389Z,33.80
2019-06-15T08:54:37.799Z,33.40
2019-06-15T08:57:06.219Z,33.10
2019-06-15T08:59:34.626Z,33.60
2019-06-15T09:02:03.039Z,33.60
2019-06-15T09:04:31.451Z,33.40
2019-06-15T09:06:59.862Z,33.60
2019-06-15T09:09:28.278Z,34.00
2019-06-15T09:11:56.695Z,33.20
2019-06-15T09:14:25.108Z,33.70
2019-06-15T09:16:53.523Z,33.80
2019-06-15T09:19:21.927Z,33.90
2019-06-15T09:21:50.357Z,33.10
2019-06-15T09:24:18.848Z,33.50
2019-06-15T09:26:47.313Z,33.40
2019-06-15T09:29:15.737Z,33.20
2019-06-15T09:31:46.390Z,33.50
2019-06-15T09:34:19.006Z,33.50
2019-06-15T09:36:44.485Z,33.80
2019-06-15T09:39:14.703Z,34.30
2019-06-15T09:41:43.210Z,34.70
2019-06-15T09:44:11.626Z,34.60
2019-06-15T09:46:40.050Z,34.20
2019-06-15T09:49:08.510Z,34.10
2019-06-15T09:51:36.922Z,33.50
2019-06-15T09:54:05.323Z,33.80
2019-06-15T09:56:33.806Z,33.80
2019-06-15T09:59:02.214Z,33.50
2019-06-15T10:01:30.634Z,33.10
2019-06-15T10:03:59.038Z,34.10
2019-06-15T10:06:27.683Z,34.20
2019-06-15T10:08:56.097Z,34.10
2019-06-15T10:11:24.512Z,34.60
2019-06-15T10:13:52.924Z,33.90
2019-06-15T10:16:21.328Z,34.00
2019-06-15T10:18:49.742Z,34.20
2019-06-15T10:21:18.155Z,34.40
2019-06-15T10:23:48.339Z,33.90
2019-06-15T10:26:16.747Z,34.30
2019-06-15T10:28:45.148Z,33.90
2019-06-15T10:31:13.562Z,32.50
2019-06-15T10:33:42.003Z,31.00
2019-06-15T10:36:10.522Z,29.60
2019-06-15T10:38:38.932Z,28.90
2019-06-15T10:41:07.343Z,28.40
2019-06-15T10:43:35.999Z,29.70
2019-06-15T10:46:04.482Z,30.10
2019-06-15T10:48:32.894Z,30.80
2019-06-15T10:51:01.301Z,32.30
2019-06-15T10:53:29.721Z,32.90
2019-06-15T10:55:58.139Z,32.70
2019-06-15T10:58:26.550Z,31.70
2019-06-15T11:00:54.967Z,30.70
2019-06-15T11:03:23.365Z,29.70
2019-06-15T11:05:54.787Z,28.90
2019-06-15T11:08:22.680Z,28.20
2019-06-15T11:11:06.019Z,27.90
2019-06-15T11:13:34.421Z,28.60
2019-06-15T11:16:02.851Z,29.70
2019-06-15T11:18:31.263Z,30.30
2019-06-15T11:20:59.691Z,30.70
2019-06-15T11:23:28.095Z,30.60
2019-06-15T11:25:56.510Z,30.20
2019-06-15T11:28:24.959Z,30.30
2019-06-15T11:30:53.427Z,30.50
2019-06-15T11:33:21.898Z,29.40
2019-06-15T11:35:50.492Z,28.40
2019-06-15T11:38:18.894Z,27.30
2019-06-15T11:40:47.303Z,27.60
2019-06-15T11:43:15.721Z,27.40
2019-06-15T11:45:44.367Z,27.60
2019-06-15T11:48:12.783Z,27.40
2019-06-15T11:50:41.196Z,27.90
2019-06-15T11:53:09.597Z,27.50
2019-06-15T11:55:39.732Z,27.30
2019-06-15T11:58:08.143Z,26.70
2019-06-15T12:00:40.557Z,26.40
2019-06-15T12:03:09.275Z,26.30
2019-06-15T12:05:37.687Z,26.30
2019-06-15T12:08:06.173Z,26.20
2019-06-15T12:10:35.513Z,26.50
2019-06-15T12:13:03.956Z,27.40
2019-06-15T12:15:32.405Z,27.90
2019-06-15T12:18:00.814Z,28.10
2019-06-15T12:20:29.290Z,28.00
2019-06-15T12:22:57.874Z,27.60
2019-06-15T12:25:26.284Z,27.30
2019-06-15T12:27:54.686Z,27.20
2019-06-15T12:30:45.970Z,27.00
2019-06-15T12:33:07.243Z,26.90
2019-06-15T12:35:35.790Z,26.50
2019-06-15T12:38:04.380Z,26.90
2019-06-15T12:40:32.787Z,27.70
2019-06-15T12:43:01.189Z,28.20
2019-06-15T12:45:29.602Z,28.80
2019-06-15T12:47:58.019Z,29.30
2019-06-15T12:50:26.445Z,29.40
2019-06-15T12:52:54.909Z,29.10
2019-06-15T12:55:23.536Z,28.90
2019-06-15T12:57:53.031Z,28.70
2019-06-15T13:00:27.092Z,28.40
2019-06-15T13:02:55.502Z,28.10
2019-06-15T13:05:23.922Z,27.60
2019-06-15T13:07:52.403Z,27.40
2019-06-15T13:10:21.769Z,27.10
2019-06-15T13:12:50.174Z,27.30
2019-06-15T13:15:18.719Z,27.50
2019-06-15T13:17:47.225Z,27.60
2019-06-15T13:20:15.870Z,27.40
2019-06-15T13:22:44.309Z,26.90
2019-06-15T13:25:12.707Z,27.10
2019-06-15T13:27:41.892Z,27.10
2019-06-15T13:30:21.690Z,27.50
2019-06-15T13:32:50.469Z,27.40
2019-06-15T13:35:19.021Z,27.20
2019-06-15T13:37:47.435Z,26.90
2019-06-15T13:40:15.892Z,26.60
2019-06-15T13:42:44.297Z,26.50
2019-06-15T13:45:13.041Z,26.10
2019-06-15T13:47:41.455Z,26.20
2019-06-15T13:50:10.402Z,26.30
2019-06-15T13:52:39.445Z,26.50
2019-06-15T13:55:08.631Z,26.70
2019-06-15T13:57:37.701Z,26.50
2019-06-15T14:00:07.153Z,26.40
2019-06-15T14:02:35.601Z,26.20
2019-06-15T14:05:05.641Z,25.90
2019-06-15T14:07:34.058Z,26.10
2019-06-15T14:10:02.703Z,26.10
2019-06-15T14:12:31.145Z,26.10
2019-06-15T14:14:59.554Z,26.10
2019-06-15T14:17:27.971Z,26.40
2019-06-15T14:19:56.386Z,26.70
2019-06-15T14:22:24.802Z,26.70
2019-06-15T14:24:53.212Z,26.50
2019-06-15T14:27:21.709Z,26.50
2019-06-15T14:29:50.106Z,26.90
2019-06-15T14:32:18.539Z,27.10
2019-06-15T14:34:46.936Z,26.90
2019-06-15T14:37:15.343Z,26.70
2019-06-15T14:39:43.755Z,27.00
2019-06-15T14:42:12.158Z,26.70
2019-06-15T14:44:40.561Z,26.80
2019-06-15T14:47:08.978Z,26.80
2019-06-15T14:49:37.386Z,27.00
2019-06-15T14:52:05.789Z,27.00
2019-06-15T14:54:37.153Z,27.10
2019-06-15T14:57:06.689Z,27.10
2019-06-15T14:59:49.616Z,27.20
2019-06-15T15:02:10.868Z,26.90
2019-06-15T15:04:36.738Z,26.90
2019-06-15T15:07:05.322Z,26.60
2019-06-15T15:09:33.735Z,26.50
2019-06-15T15:12:02.145Z,26.30
2019-06-15T15:14:30.563Z,26.20
2019-06-15T15:16:59.142Z,26.10
2019-06-15T15:19:27.541Z,26.10
2019-06-15T15:21:55.974Z,26.30
2019-06-15T15:24:27.107Z,26.20
2019-06-15T15:26:54.511Z,26.30
2019-06-15T15:29:22.924Z,26.10
2019-06-15T15:31:51.343Z,26.00
2019-06-15T15:34:19.818Z,26.10
2019-06-15T15:36:48.233Z,26.20
2019-06-15T15:39:16.839Z,26.20
2019-06-15T15:41:47.032Z,26.10
2019-06-15T15:44:16.252Z,26.10
2019-06-15T15:46:46.227Z,25.90
2019-06-15T15:49:16.297Z,26.10
2019-06-15T15:51:47.120Z,26.10
2019-06-15T15:54:15.042Z,26.10
2019-06-15T15:56:43.448Z,26.10
2019-06-15T15:59:11.863Z,25.90
2019-06-15T16:01:40.259Z,25.50
2019-06-15T16:04:20.205Z,25.10
2019-06-15T16:06:49.652Z,25.20
2019-06-15T16:09:18.076Z,25.50
2019-06-15T16:11:46.522Z,25.90
2019-06-15T16:14:16.495Z,26.00
2019-06-15T16:16:46.842Z,26.00
2019-06-15T16:19:16.952Z,25.70
2019-06-15T16:21:47.079Z,25.70
2019-06-15T16:24:16.720Z,25.60
2019-06-15T16:26:46.769Z,25.50
2019-06-15T16:29:16.253Z,25.40
2019-06-15T16:31:46.199Z,25.40
2019-06-15T16:34:16.071Z,25.30
2019-06-15T16:36:46.874Z,25.50
2019-06-15T16:39:16.714Z,25.60
2019-06-15T16:41:46.981Z,25.60
2019-06-15T16:44:17.265Z,25.40
2019-06-15T16:46:45.193Z,25.20
2019-06-15T16:49:16.351Z,25.00
2019-06-15T16:51:46.454Z,25.00
2019-06-15T16:54:16.450Z,25.00
2019-06-15T16:56:46.414Z,24.80
2019-06-15T16:59:14.204Z,24.90
2019-06-15T17:01:42.927Z,25.00
2019-06-15T17:04:11.377Z,24.90
2019-06-15T17:06:40.833Z,24.80
2019-06-15T17:09:09.466Z,24.60
2019-06-15T17:11:37.878Z,24.70
2019-06-15T17:14:06.896Z,24.60
2019-06-15T17:16:36.801Z,24.50
2019-06-15T17:19:07.056Z,24.50
2019-06-15T17:21:37.231Z,24.40
2019-06-15T17:24:06.826Z,24.30
2019-06-15T17:26:36.576Z,24.30
2019-06-15T17:29:07.260Z,24.30
2019-06-15T17:31:37.505Z,24.20
2019-06-15T17:34:07.300Z,24.10
2019-06-15T17:36:36.807Z,24.00
2019-06-15T17:39:07.980Z,24.10
2019-06-15T17:41:36.694Z,24.00
2019-06-15T17:44:06.123Z,23.90
2019-06-15T17:46:34.670Z,23.70
2019-06-15T17:49:03.096Z,23.70
2019-06-15T17:51:31.585Z,23.70
2019-06-15T17:54:00.034Z,23.60
2019-06-15T17:56:28.453Z,23.60
2019-06-15T17:58:56.868Z,23.60
2019-06-15T18:01:26.501Z,23.50
2019-06-15T18:03:57.954Z,23.40
2019-06-15T18:06:26.881Z,23.40
2019-06-15T18:08:55.543Z,23.30
2019-06-15T18:11:26.099Z,23.30
2019-06-15T18:13:56.454Z,23.10
2019-06-15T18:16:28.001Z,23.10
2019-06-15T18:18:54.506Z,23.10
2019-06-15T18:21:22.920Z,23.00
2019-06-15T18:23:51.326Z,22.90
2019-06-15T18:26:19.741Z,22.80
2019-06-15T18:28:48.145Z,22.90
2019-06-15T18:31:16.602Z,22.80
2019-06-15T18:33:47.197Z,22.80
2019-06-15T18:36:17.147Z,22.60
2019-06-15T18:38:46.487Z,22.50
2019-06-15T18:41:17.039Z,22.60
2019-06-15T18:43:45.194Z,22.50
2019-06-15T18:46:13.598Z,22.50
2019-06-15T18:48:41.993Z,22.30
2019-06-15T18:51:10.408Z,22.10
2019-06-15T18:53:39.442Z,22.10
2019-06-15T18:56:07.905Z,22.00
2019-06-15T18:58:37.278Z,21.80
2019-06-15T19:01:06.896Z,21.70
2019-06-15T19:03:37.594Z,21.60
2019-06-15T19:06:06.612Z,21.40
2019-06-15T19:08:35.194Z,21.20
2019-06-15T19:11:03.695Z,21.10
2019-06-15T19:13:32.178Z,20.90
2019-06-15T19:16:00.602Z,20.80
2019-06-15T19:18:29.070Z,20.60
2019-06-15T19:20:57.477Z,20.40
2019-06-15T19:23:26.601Z,20.30
2019-06-15T19:25:57.381Z,20.10
2019-06-15T19:28:26.709Z,20.10
2019-06-15T19:30:56.070Z,19.90
2019-06-15T19:33:26.751Z,19.80
2019-06-15T19:35:56.918Z,19.70
2019-06-15T19:38:27.169Z,19.70
2019-06-15T19:40:56.574Z,19.50
2019-06-15T19:43:25.197Z,19.40
2019-06-15T19:45:56.296Z,19.20
2019-06-15T19:48:23.768Z,19.30
2019-06-15T19:50:52.183Z,19.40
2019-06-15T19:53:20.592Z,19.30
2019-06-15T19:55:49.005Z,19.10
2019-06-15T19:58:17.411Z,19.00
2019-06-15T20:00:46.857Z,18.90
2019-06-15T20:03:16.683Z,18.80
2019-06-15T20:05:46.158Z,18.70
2019-06-15T20:08:17.421Z,18.50
2019-06-15T20:10:47.310Z,18.40
2019-06-15T20:13:15.435Z,18.20
2019-06-15T20:15:46.680Z,18.10
2019-06-15T20:18:13.986Z,18.00
2019-06-15T20:20:42.390Z,17.90
2019-06-15T20:23:10.798Z,17.80
2019-06-15T20:25:39.209Z,17.70
2019-06-15T20:28:07.619Z,17.70
2019-06-15T20:30:37.075Z,17.60
2019-06-15T20:33:07.853Z,17.80
2019-06-15T20:35:36.037Z,17.70
2019-06-15T20:38:04.852Z,17.90
2019-06-15T20:40:33.249Z,18.00
2019-06-15T20:43:01.657Z,18.00
2019-06-15T20:45:31.615Z,18.10
2019-06-15T20:48:00.159Z,18.10
2019-06-15T20:50:28.811Z,18.20
2019-06-15T20:52:57.232Z,18.10
2019-06-15T20:55:26.573Z,18.10
2019-06-15T20:57:56.800Z,18.00
2019-06-15T21:00:26.233Z,18.00
2019-06-15T21:02:56.142Z,17.80
2019-06-15T21:05:34.724Z,17.80
2019-06-15T21:07:57.405Z,17.70
2019-06-15T21:10:26.369Z,17.70
2019-06-15T21:12:54.993Z,17.60
2019-06-15T21:15:26.469Z,17.50
2019-06-15T21:17:56.942Z,17.50
2019-06-15T21:20:26.774Z,17.50
2019-06-15T21:22:57.185Z,17.40
2019-06-15T21:25:26.495Z,17.40
2019-06-15T21:27:56.773Z,17.50
2019-06-15T21:30:27.055Z,17.50
2019-06-15T21:32:55.974Z,17.50
2019-06-15T21:35:26.543Z,17.60
2019-06-15T21:37:57.103Z,17.60
2019-06-15T21:40:27.324Z,17.60
2019-06-15T21:42:56.285Z,17.60
2019-06-15T21:45:24.867Z,17.60
2019-06-15T21:47:55.904Z,17.60
2019-06-15T21:50:23.465Z,17.50
2019-06-15T21:52:51.912Z,17.40
2019-06-15T21:55:20.318Z,17.40
2019-06-15T21:57:48.774Z,17.40
2019-06-15T22:00:22.030Z,17.40
2019-06-15T22:02:50.446Z,17.40
2019-06-15T22:05:18.857Z,17.40
2019-06-15T22:07:47.781Z,17.30
2019-06-15T22:10:16.494Z,17.30
2019-06-15T22:12:44.919Z,17.20
2019-06-15T22:15:15.982Z,17.20
2019-06-15T22:17:43.839Z,17.20
2019-06-15T22:20:12.427Z,17.20
2019-06-15T22:22:40.851Z,17.20
2019-06-15T22:25:09.504Z,17.30
2019-06-15T22:27:37.919Z,17.30
2019-06-15T22:30:09.976Z,17.20
2019-06-15T22:32:38.401Z,17.20
2019-06-15T22:35:07.446Z,17.20
2019-06-15T22:37:36.145Z,17.30
2019-06-15T22:40:08.410Z,17.30
2019-06-15T22:42:37.218Z,17.30
2019-06-15T22:45:07.434Z,17.30
2019-06-15T22:47:36.299Z,17.30
2019-06-15T22:50:07.079Z,17.20
